All Spectrum Aviation - Van Nuys Airport - KVNY

HOME

Van Nuys Tower Recordings

Condor Squadron KVNY Webcam

Visit our Electronics Store

Condor Squadron Webcam - Van Nuys Airport - KVNY
Picture taken: Fri, 18 Aug 2017 09:22:31 -0700
YouTube Channel!    Latest Timelapse Movie    Full Size Image    Regular Size Image    

2017/08/18 15:51 KVNY 181551Z 00000KT 10SM CLR 21/16 A3001 RMK AO2 SLP155 T02110156 $

HOME

Van Nuys Tower Recordings

Condor Squadron KVNY Webcam

Visit our Electronics Store